Tinsdal — V2AJ2 — position and weather

sailwx.info

Track history (hours):
 
Tides and Currents Weather Stations Pressure Air Temp Water Temp Dewpoint Dewpoint Depression Visibility Wind Speed Wind Dir Waves Ship Positions

Tinsdal

Last reported at 2014-Aug-29 04:32 UTC. Time now 2014-Aug-30 04:32 UTC.
Position N 36°23' E 022°42'.

Length 90 m; draft 5.5 m.

Type: Cargo ship. MMSI: 305573000.

Date/timePositionNaut miles runAvg speedWind from/ knotsBaromVisibWave heightAir tempDewpointWater temp
2014-Aug-29 04:32N 36°23' E 022°42'1010.3
2014-Aug-29 03:33N 36°25' E 022°54'88 9.5
2014-Aug-28 18:16N 37°33' E 024°04'2010.0
2014-Aug-28 16:17N 37°47' E 024°22'7310.4
2014-Aug-28 09:19N 38°49' E 025°10'810.6
2014-Aug-28 08:32N 38°56' E 025°14'6610.5
2014-Aug-28 02:14N 39°55' E 025°53'710.3
2014-Aug-28 01:33N 40°01' E 025°59'2410.3
2014-Aug-27 23:11N 40°13' E 026°26'910.7
2014-Aug-27 22:19N 40°19' E 026°36'  
2014-Aug-22 04:33N 40°43' E 027°28'1111.0
2014-Aug-22 03:33N 40°47' E 027°42'1110.8
2014-Aug-22 02:33N 40°49' E 027°56'39 9.6
2014-Aug-21 22:31N 40°45' E 028°47'1010.6
2014-Aug-21 21:33N 40°45' E 029°00'1111.1
2014-Aug-21 20:33N 40°45' E 029°15'12 0.4
2014-Aug-20 16:30N 40°45' E 029°30'7 1.0
2014-Aug-20 09:33N 40°43' E 029°22'9 8.8
2014-Aug-20 08:33N 40°43' E 029°10'10 9.9
2014-Aug-20 07:33N 40°44' E 028°57'  
Track history (hours):
 
Tides and Currents Weather Stations Pressure Air Temp Water Temp Dewpoint Dewpoint Depression Visibility Wind Speed Wind Dir Waves Ship Positions

Tinsdal

Last reported at 2014-Aug-29 04:32 UTC. Time now 2014-Aug-30 04:32 UTC.
Position N 36°23' E 022°42'.

Length 90 m; draft 5.5 m.

Type: Cargo ship. MMSI: 305573000.

Date/timePositionNaut miles runAvg speedWind from/ knotsBaromVisibWave heightAir tempDewpointWater temp
2014-Aug-29 04:32N 36°23' E 022°42'1010.3
2014-Aug-29 03:33N 36°25' E 022°54'88 9.5
2014-Aug-28 18:16N 37°33' E 024°04'2010.0
2014-Aug-28 16:17N 37°47' E 024°22'7310.4
2014-Aug-28 09:19N 38°49' E 025°10'810.6
2014-Aug-28 08:32N 38°56' E 025°14'6610.5
2014-Aug-28 02:14N 39°55' E 025°53'710.3
2014-Aug-28 01:33N 40°01' E 025°59'2410.3
2014-Aug-27 23:11N 40°13' E 026°26'910.7
2014-Aug-27 22:19N 40°19' E 026°36'  
2014-Aug-22 04:33N 40°43' E 027°28'1111.0
2014-Aug-22 03:33N 40°47' E 027°42'1110.8
2014-Aug-22 02:33N 40°49' E 027°56'39 9.6
2014-Aug-21 22:31N 40°45' E 028°47'1010.6
2014-Aug-21 21:33N 40°45' E 029°00'1111.1
2014-Aug-21 20:33N 40°45' E 029°15'12 0.4
2014-Aug-20 16:30N 40°45' E 029°30'7 1.0
2014-Aug-20 09:33N 40°43' E 029°22'9 8.8
2014-Aug-20 08:33N 40°43' E 029°10'10 9.9
2014-Aug-20 07:33N 40°44' E 028°57'  

Dump ship's entire track history